Latest Weather Observations for Palmerville

IDQ60801

Issued at 6:35 am EST Saturday 1 November 2014 (issued every 30 minutes, with the page automatically refreshed every 10 minutes)

About weather observations | Map of weather stations | Latest weather observations for QLD | Other Formats
Station Details ID: 028004 Name: PALMERVILLE Lat: -16.00 Lon: 144.08 Height: 203.8 m
Data from the previous 72 hours. | See also: Recent months at Palmerville
Date/Time
EST
Temp
°C
App
Temp
°C
Dew
Point
Rel
Hum
%
Delta-T
°C
Wind Press
QNH
hPa
Press
MSL
hPa
Rain
since 9 am
mm
Dir
 
Spd
km/h
Gust
km/h
Spd
kts
Gust
kts
01/06:30am 20.1 22.4 16.7 81 2.1 ENE 0 0 0 0 1014.1 1012.8 0.0
01/06:00am 19.1 21.1 16.1 83 1.8 NW 0 0 0 0 1013.9 1012.6 0.0
01/05:30am 19.1 20.9 15.6 80 2.1 CALM 0 0 0 0 1013.6 1012.3 0.0
01/05:00am 19.6 21.6 16.1 80 2.1 SSW 0 0 0 0 1013.2 1011.9 0.0
01/04:30am 20.2 22.2 16.0 77 2.5 CALM 0 6 0 3 1012.7 1011.5 0.0
01/04:00am 20.7 22.7 15.9 74 2.9 CALM 0 0 0 0 1012.3 1011.0 0.0
01/03:30am 21.3 23.5 16.5 74 2.9 CALM 0 6 0 3 1012.0 1010.7 0.0
01/03:00am 22.4 24.7 16.7 70 3.5 CALM 0 0 0 0 1011.9 1010.6 0.0
01/02:30am 23.1 23.4 17.1 69 3.7 NE 11 17 6 9 1011.7 1010.4 0.0
01/02:00am 23.2 23.9 17.0 68 3.8 NNE 9 15 5 8 1011.7 1010.4 0.0
01/01:30am 23.1 23.6 16.6 67 4.0 NE 9 17 5 9 1012.0 1010.7 0.0
01/01:00am 23.3 23.7 16.4 65 4.2 NNE 9 13 5 7 1012.2 1010.9 0.0
01/12:30am 23.6 23.3 16.4 64 4.4 NNE 13 19 7 10 1012.5 1011.2 0.0
01/12:00am 23.9 23.5 16.2 62 4.7 NNE 13 17 7 9 1012.7 1011.5 0.0
 
Date/Time
EST
Temp
°C
App
Temp
°C
Dew
Point
Rel
Hum
%
Delta-T
°C
Wind Press
QNH
hPa
Press
MSL
hPa
Rain
since 9 am
mm
Dir
 
Spd
km/h
Gust
km/h
Spd
kts
Gust
kts
31/11:30pm 24.1 24.0 15.9 60 5.0 NE 11 20 6 11 1013.2 1011.9 0.0
31/11:00pm 24.6 23.9 15.5 57 5.5 NNE 13 20 7 11 1013.4 1012.1 0.0
31/10:30pm 25.0 23.8 15.0 53 6.0 NE 15 26 8 14 1013.6 1012.3 0.0
31/10:00pm 25.7 24.7 14.5 50 6.7 NE 13 26 7 14 1013.3 1012.0 0.0
31/09:30pm 26.1 24.2 14.2 48 7.1 NE 17 26 9 14 1012.9 1011.7 0.0
31/09:00pm 26.6 24.9 14.7 48 7.2 NE 17 28 9 15 1012.5 1011.2 0.0
31/08:30pm 27.3 26.0 14.7 46 7.7 NNE 15 28 8 15 1012.1 1010.8 0.0
31/08:00pm 28.0 26.9 14.3 43 8.3 NNE 13 20 7 11 1011.4 1010.1 0.0
31/07:30pm 29.0 27.3 13.6 38 9.3 NNE 15 28 8 15 1010.9 1009.6 0.0
31/07:00pm 30.2 27.5 13.0 34 10.3 NNE 19 32 10 17 1010.2 1008.9 0.0
31/06:30pm 31.4 28.3 12.2 30 11.4 NNE 20 32 11 17 1009.8 1008.5 0.0
31/06:00pm 33.5 30.4 10.2 24 13.6 NNE 17 24 9 13 1009.2 1007.9 0.0
31/05:30pm 34.8 31.6 9.9 22 14.5 NNE 17 28 9 15 1008.6 1007.3 0.0
31/05:00pm 35.6 32.4 9.9 21 15.0 NNE 17 33 9 18 1008.3 1006.9 0.0
31/04:30pm 35.9 33.5 10.2 21 15.1 NNE 13 22 7 12 1008.1 1006.7 0.0
31/04:00pm 36.8 34.6 10.9 21 15.4 NE 13 26 7 14 1008.1 1006.7 0.0
31/03:30pm 36.5 34.2 10.6 21 15.3 NNE 13 20 7 11 1008.3 1006.9 0.0
31/03:00pm 36.9 35.7 11.7 22 15.2 ESE 9 17 5 9 1008.6 1007.3 0.0
31/02:30pm 36.2 34.3 11.8 23 14.7 N 13 22 7 12 1008.8 1007.5 0.0
31/02:00pm 36.3 35.6 13.1 25 14.3 E 9 19 5 10 1009.4 1008.1 0.0
31/01:30pm 36.2 35.1 13.0 24 14.2 E 11 22 6 12 1009.9 1008.6 0.0
31/01:00pm 34.9 33.2 12.5 25 13.6 ENE 13 20 7 11 1010.4 1009.1 0.0
31/12:30pm 34.4 33.7 13.3 28 12.9 NNE 9 17 5 9 1011.0 1009.7 0.0
31/12:00pm 34.0 32.8 12.9 28 12.8 ENE 11 22 6 12 1011.6 1010.3 0.0
31/11:30am 33.6 32.8 14.1 30 12.0 NNE 11 22 6 12 1012.2 1010.9 0.0
31/11:00am 32.4 31.2 14.1 33 11.2 SE 13 22 7 12 1012.8 1011.6 0.0
31/10:30am 31.3 31.0 14.4 35 10.4 NNE 9 17 5 9 1013.4 1012.1 0.0
31/10:00am 30.5 29.8 14.2 37 9.9 E 11 19 6 10 1013.8 1012.5 0.0
31/09:30am 29.0 29.4 15.2 43 8.5 E 7 15 4 8 1014.1 1012.8 0.0
31/09:00am 27.4 27.6 15.7 48 7.2 E 9 15 5 8 1014.2 1012.9 0.0
31/08:30am 26.2 26.3 16.4 54 6.1 E 11 17 6 9 1014.2 1012.9 0.0
31/08:00am 24.9 25.4 16.6 60 5.1 E 9 13 5 7 1014.1 1012.8 0.0
31/07:30am 23.0 25.3 16.8 68 3.8 CALM 0 0 0 0 1014.1 1012.8 0.0
31/07:00am 21.5 23.9 16.9 75 2.8 CALM 0 0 0 0 1013.8 1012.5 0.0
31/06:30am 19.4 21.5 16.2 82 1.9 CALM 0 0 0 0 1013.5 1012.2 0.0
31/06:00am 18.4 20.2 15.6 84 1.7 CALM 0 0 0 0 1013.3 1012.0 0.0
31/05:30am 18.8 20.8 16.0 84 1.7 CALM 0 0 0 0 1012.8 1011.6 0.0
31/05:00am 19.0 20.9 15.7 81 2.0 CALM 0 0 0 0 1012.7 1011.5 0.0
31/04:30am 19.7 21.7 16.0 79 2.2 CALM 0 0 0 0 1012.4 1011.1 0.0
31/04:00am 20.2 22.2 16.0 77 2.5 CALM 0 0 0 0 1012.1 1010.8 0.0
31/03:30am 21.0 21.9 16.2 74 2.9 NNW 6 7 3 4 1012.0 1010.7 0.0
31/03:00am 22.2 22.8 16.7 71 3.4 NNE 9 13 5 7 1011.6 1010.3 0.0
31/02:30am 22.0 22.9 16.7 72 3.3 NNE 7 11 4 6 1011.6 1010.3 0.0
31/02:00am 21.9 22.7 16.4 71 3.4 N 7 15 4 8 1011.8 1010.5 0.0
31/01:30am 22.2 23.1 16.5 70 3.5 N 7 15 4 8 1011.9 1010.6 0.0
31/01:00am 22.5 22.9 16.3 68 3.8 N 9 19 5 10 1012.0 1010.7 0.0
31/12:30am 23.4 22.6 16.2 64 4.4 NNE 15 22 8 12 1012.4 1011.1 0.0
31/12:00am 23.7 23.6 16.0 62 4.7 N 11 20 6 11 1012.4 1011.1 0.0
 
Date/Time
EST
Temp
°C
App
Temp
°C
Dew
Point
Rel
Hum
%
Delta-T
°C
Wind Press
QNH
hPa
Press
MSL
hPa
Rain
since 9 am
mm
Dir
 
Spd
km/h
Gust
km/h
Spd
kts
Gust
kts
30/11:30pm 24.2 23.3 15.9 59 5.1 NNE 15 22 8 12 1012.5 1011.2 0.0
30/11:00pm 24.9 24.1 16.1 58 5.4 NNE 15 22 8 12 1012.5 1011.2 0.0
30/10:30pm 25.6 24.7 15.9 55 6.0 N 15 24 8 13 1012.4 1011.1 0.0
30/10:00pm 26.3 26.1 15.7 52 6.5 NNE 11 17 6 9 1012.2 1010.9 0.0
30/09:30pm 27.0 26.3 15.4 49 7.1 NE 13 22 7 12 1011.8 1010.5 0.0
30/09:00pm 27.8 26.8 15.5 47 7.6 NNE 15 20 8 11 1011.4 1010.1 0.0
30/08:30pm 28.6 27.9 15.5 45 8.1 N 13 20 7 11 1011.0 1009.7 0.0
30/08:00pm 30.1 27.9 13.4 36 10.1 NNE 17 22 9 12 1010.5 1009.2 0.0
30/07:30pm 30.8 28.0 13.1 34 10.6 NNE 20 28 11 15 1010.2 1008.9 0.0
30/07:00pm 31.8 29.0 12.6 31 11.5 NNE 19 30 10 16 1009.7 1008.4 0.0
30/06:30pm 32.6 30.2 12.8 30 11.9 NNE 17 28 9 15 1009.3 1008.0 0.0
30/06:00pm 33.5 31.1 12.5 28 12.7 NNE 17 26 9 14 1008.9 1007.6 0.0
30/05:30pm 34.8 32.4 12.5 26 13.5 NNE 17 22 9 12 1008.7 1007.4 0.0
30/05:00pm 35.8 34.2 11.4 23 14.6 E 11 22 6 12 1008.4 1007.1 0.0
30/04:30pm 36.8 34.1 10.2 20 15.7 ENE 15 20 8 11 1008.3 1006.9 0.0
30/04:00pm 36.5 32.9 10.6 21 15.4 NNE 20 24 11 13 1008.3 1006.9 0.0
30/03:30pm 37.0 33.7 9.6 19 16.0 ENE 17 26 9 14 1008.4 1007.1 0.0
30/03:00pm 37.3 34.4 9.8 19 16.2 ENE 15 22 8 12 1008.7 1007.4 0.0
30/02:30pm 37.3 33.7 9.8 19 16.1 NE 19 24 10 13 1009.1 1007.8 0.0
30/02:00pm 37.0 33.3 9.6 19 16.0 E 19 28 10 15 1009.5 1008.2 0.0
30/01:30pm 35.7 32.9 10.0 21 15.0 NE 15 24 8 13 1009.6 1008.3 0.0
30/01:00pm 36.3 34.0 10.5 21 15.3 NNE 13 22 7 12 1010.3 1009.0 0.0
30/12:30pm 35.6 31.8 9.9 21 15.0 ENE 20 30 11 16 1011.1 1009.8 0.0
30/12:00pm 34.4 33.5 11.5 25 13.6 N 7 15 4 8 1011.8 1010.5 0.0
30/11:30am 33.9 33.3 12.3 27 13.0 SE 7 15 4 8 1012.3 1011.0 0.0
30/11:00am 32.7 32.6 13.4 31 11.7 SE 6 13 3 7 1013.1 1011.8 0.0
30/10:30am 31.5 29.8 12.3 31 11.4 ENE 13 20 7 11 1013.6 1012.3 0.0
30/10:00am 30.3 29.6 13.1 34 10.3 E 9 15 5 8 1014.0 1012.7 0.0
30/09:30am 29.2 28.9 13.4 38 9.5 NE 7 13 4 7 1014.2 1012.9 0.0
30/09:00am 27.8 27.3 14.8 45 7.9 NE 11 20 6 11 1014.4 1013.1 0.0
30/08:30am 26.3 26.7 16.3 54 6.2 E 9 13 5 7 1014.5 1013.2 0.0
30/08:00am 24.4 25.1 17.1 63 4.6 E 9 15 5 8 1014.1 1012.8 0.0
30/07:30am 22.7 23.6 17.6 73 3.2 E 9 11 5 6 1014.0 1012.7 0.0
30/07:00am 20.9 22.4 17.5 81 2.1 ENE 6 9 3 5 1013.9 1012.6 0.0
30/06:30am 19.3 20.6 17.6 90 1.0 E 7 9 4 5 1013.5 1012.2 0.0
30/06:00am 18.1 19.1 16.9 93 0.7 E 7 9 4 5 1013.3 1012.0 0.0
30/05:30am 18.0 19.3 17.0 94 0.6 ESE 6 7 3 4 1013.1 1011.8 0.0
30/05:00am 18.0 20.1 16.3 90 1.0 CALM 0 0 0 0 1013.2 1011.9 0.0
30/04:30am 18.3 20.2 16.8 91 0.9 E 2 7 1 4 1013.2 1011.9 0.0
30/04:00am 18.4 20.6 16.4 88 1.2 CALM 0 0 0 0 1013.2 1011.9 0.0
30/03:30am 18.8 20.9 16.2 85 1.6 CALM 0 0 0 0 1012.7 1011.5 0.0
30/03:00am 19.6 21.8 16.6 83 1.8 CALM 0 0 0 0 1012.3 1011.0 0.0
30/02:30am 20.4 21.7 17.2 82 2.0 N 6 7 3 4 1012.4 1011.1 0.0
30/02:00am 20.7 22.1 17.3 81 2.1 N 6 7 3 4 1012.6 1011.3 0.0
30/01:30am 21.0 22.1 17.2 79 2.3 NNE 7 11 4 6 1012.8 1011.6 0.0
30/01:00am 21.7 22.5 17.3 76 2.7 N 9 13 5 7 1013.3 1012.0 0.0
30/12:30am 22.0 22.6 16.9 73 3.1 N 9 13 5 7 1013.4 1012.1 0.0
30/12:00am 22.6 22.7 16.6 69 3.7 N 11 15 6 8 1013.6 1012.3 0.0
 
Date/Time
EST
Temp
°C
App
Temp
°C
Dew
Point
Rel
Hum
%
Delta-T
°C
Wind Press
QNH
hPa
Press
MSL
hPa
Rain
since 9 am
mm
Dir
 
Spd
km/h
Gust
km/h
Spd
kts
Gust
kts
29/11:30pm 23.1 23.5 16.2 65 4.2 N 9 13 5 7 1013.7 1012.4 0.0
29/11:00pm 23.9 23.5 15.1 58 5.3 N 11 19 6 10 1013.8 1012.5 0.0
29/10:30pm 24.8 23.6 15.1 54 5.9 N 15 22 8 12 1013.9 1012.6 0.0
29/10:00pm 25.7 24.4 14.8 51 6.6 N 15 20 8 11 1013.5 1012.2 0.0
29/09:30pm 26.7 26.2 13.8 45 7.7 N 9 15 5 8 1012.8 1011.6 0.0
29/09:00pm 27.7 26.8 13.6 42 8.4 N 11 17 6 9 1012.5 1011.2 0.0
29/08:30pm 28.5 27.2 12.4 37 9.5 NNE 11 17 6 9 1012.2 1010.9 0.0
29/08:00pm 29.6 27.8 12.1 34 10.3 N 13 22 7 12 1011.7 1010.4 0.0
29/07:30pm 30.7 28.2 11.1 30 11.4 N 15 24 8 13 1011.3 1010.0 0.0
29/07:00pm 31.9 29.5 10.0 26 12.6 N 13 24 7 13 1010.8 1009.5 0.0
29/06:30pm 32.9 30.2 10.3 25 13.1 NNE 15 22 8 12 1010.4 1009.1 0.0
29/06:00pm 34.3 31.2 10.2 23 14.1 N 17 28 9 15 1009.8 1008.5 0.0
29/05:30pm 35.6 32.0 8.4 19 15.5 NNE 17 24 9 13 1009.4 1008.1 0.0
29/05:00pm 36.9 34.5 8.7 18 16.3 E 11 19 6 10 1009.2 1007.9 0.0
29/04:30pm 37.4 35.9 9.1 18 16.4 W 7 13 4 7 1009.1 1007.8 0.0
29/04:00pm 37.6 35.7 9.2 18 16.6 NW 9 19 5 10 1009.0 1007.7 0.0
29/03:30pm 36.4 34.9 10.6 21 15.3 NW 9 15 5 8 1009.2 1007.9 0.0
29/03:00pm 35.8 34.2 10.1 21 15.1 ESE 9 19 5 10 1009.4 1008.1 0.0
29/02:30pm 36.4 34.3 9.8 20 15.6 ENE 11 22 6 12 1010.0 1008.7 0.0
29/02:00pm 35.7 34.2 9.3 20 15.3 S 7 13 4 7 1010.6 1009.3 0.0
29/01:30pm 35.5 33.8 9.8 21 15.0 E 9 20 5 11 1011.2 1009.9 0.0
29/01:00pm 35.5 33.4 9.8 21 15.0 E 11 20 6 11 1011.8 1010.5 0.0
29/12:30pm 33.5 32.4 10.8 25 13.3 ENE 7 17 4 9 1012.3 1011.0 0.0
29/12:00pm 32.6 31.1 10.6 26 12.8 NE 9 13 5 7 1012.8 1011.6 0.0
29/11:30am 32.2 31.0 12.9 31 11.6 S 11 19 6 10 1013.4 1012.1 0.0
29/11:00am 31.2 30.2 13.5 34 10.7 S 11 15 6 8 1013.9 1012.6 0.0
29/10:30am 29.1 28.8 14.5 41 8.9 NNW 9 13 5 7 1014.3 1013.0 0.0
29/10:00am 27.8 27.9 15.5 47 7.6 W 9 13 5 7 1014.6 1013.3 0.0
29/09:30am 26.3 26.5 15.7 52 6.5 W 9 15 5 8 1014.9 1013.6 0.0
29/09:00am 25.5 25.8 16.1 56 5.8 WNW 9 15 5 8 1015.1 1013.8 0.0
29/08:30am 24.4 25.2 16.4 61 4.9 N 7 13 4 7 1014.8 1013.5 0.0
29/08:00am 23.2 23.8 16.7 67 4.0 N 9 15 5 8 1014.8 1013.5 0.0
29/07:30am 21.6 23.5 16.6 73 3.1 NNW 2 7 1 4 1014.6 1013.3 0.0
29/07:00am 20.1 22.1 16.1 78 2.4 CALM 0 0 0 0 1014.5 1013.2 0.0

Other Formats:

Comma delimited format used in spreadsheet applications
http://www.bom.gov.au/fwo/IDQ60801/IDQ60801.94276.axf

JavaScript Object Notation format (JSON) in row-major order
http://www.bom.gov.au/fwo/IDQ60801/IDQ60801.94276.json